Dati Storici

Data ora Umidita' aria (%) Temperatura aria (°C) Rad globale (W/m²) Gonioanemometro (°) Tacoanemometro (m/s) Pioggia (mm)
24-10-2012 20:50 88.9 % 12.936 0.421 278.349 -0.013 0
24-10-2012 20:40 89.5 % 13.257 0.909 327.406 0.289 0
24-10-2012 20:30 88.2 % 13.024 0.507 140.871 -0.018 0
24-10-2012 20:20 88.2 % 13.286 1.469 1.075 -0.014 0
24-10-2012 20:10 87.4 % 13.278 1.059 315.767 -0.013 0
24-10-2012 20:00 86.2 % 13.236 0.828 322.553 0.214 0
24-10-2012 19:50 86.2 % 13.661 0.905 286.959 0.026 0
24-10-2012 19:40 85 % 13.651 0.361 319.921 -0.018 0
24-10-2012 19:30 84 % 14.025 0.156 149.447 0.2 0
24-10-2012 19:20 83.5 % 14.355 0.528 147.203 0.223 0
24-10-2012 19:10 82.5 % 14.479 0.477 93.396 0.012 0
24-10-2012 19:00 82.9 % 14.875 0.413 126.025 0.125 0
24-10-2012 18:50 80.6 % 14.271 -0.398 163.886 0.19 0
24-10-2012 18:40 79.3 % 14.926 -0.385 114.598 0.147 0
24-10-2012 18:30 77 % 15.17 -0.654 138.881 0.128 0
24-10-2012 18:20 75.4 % 15.681 0.359 103.989 0.176 0
24-10-2012 18:10 73.2 % 16.417 3.732 148.771 0.065 0
24-10-2012 18:00 70.2 % 16.952 9.005 156.723 0.163 0
24-10-2012 17:50 67.8 % 17.544 19.542 121.591 0.509 0
24-10-2012 17:40 64.9 % 18.275 36.622 146.236 0.507 0

I dati sono presentati in modo automatico a scopo informativo. In seguito a verifica i dati possono subire modifiche o essere invalidati e non riportati negli archivi definitivi.